Terminal Aerodrome Forecast
Issued by NWS Quad Cities IA IL

Home | Current Version | Previous Version | Text Only | Print | Product List | Glossary On
Versions: 1 2 3 4 5 6 7 8 9 10 11 12 13 14
000
FTUS43 KDVN 191728
TAFMLI
TAF
KMLI 191728Z 1918/2018 17006KT P6SM SCT200
     FM201200 14009KT 5SM BR BKN200
     FM201500 15012KT 4SM BR OVC015 PROB30 2015/2018 3SM SHRA BR
      OVC010=

USA.gov is the U.S. government's official web portal to all federal, state and local government web resources and services.